Time;durP1;ratioP1;P1;durP2;ratioP2;P2;SDS_P1;SDS_P2;PMS_P1;PMS_P2;Temp;Humidity;BMP_temperature;BMP_pressure;BME280_temperature;BME280_humidity;BME280_pressure;Samples;Min_cycle;Max_cycle;Signal;HPM_P1;HPM_P2
2023/04/25 00:01:06;;;;;;;1.40;1.30;;;18.90;49.30;;;;;;5013559;28;20191;-66
2023/04/25 00:03:35;;;;;;;1.40;1.30;;;18.90;49.40;;;;;;5013235;28;20549;-66
2023/04/25 00:06:02;;;;;;;1.40;1.30;;;18.80;49.30;;;;;;5012003;28;20208;-66
2023/04/25 00:08:30;;;;;;;1.50;1.40;;;18.80;49.30;;;;;;5014759;28;20220;-66
2023/04/25 00:10:57;;;;;;;1.50;1.40;;;18.80;49.20;;;;;;5017050;28;20231;-66
2023/04/25 00:13:26;;;;;;;1.45;1.30;;;18.90;49.40;;;;;;5032320;28;20204;-65
2023/04/25 00:15:53;;;;;;;1.60;1.50;;;18.80;49.30;;;;;;5032152;28;20263;-66
2023/04/25 00:18:20;;;;;;;1.42;1.33;;;18.80;49.30;;;;;;5032158;28;20217;-65
2023/04/25 00:20:47;;;;;;;1.88;1.40;;;18.80;49.50;;;;;;5016755;28;20189;-66
2023/04/25 00:23:17;;;;;;;1.40;1.30;;;18.80;49.40;;;;;;5032225;28;20204;-66
2023/04/25 00:25:45;;;;;;;1.55;1.45;;;18.80;49.40;;;;;;5032158;28;20271;-66
2023/04/25 00:28:12;;;;;;;2.13;1.58;;;18.80;49.40;;;;;;5016640;28;20678;-66
2023/04/25 00:30:40;;;;;;;2.60;1.50;;;18.80;49.50;;;;;;5015216;28;20203;-65
2023/04/25 00:33:08;;;;;;;1.20;1.20;;;18.80;50.00;;;;;;5016405;28;20506;-65
2023/04/25 00:35:35;;;;;;;1.40;1.30;;;18.80;49.60;;;;;;5015419;28;20270;-65
2023/04/25 00:38:02;;;;;;;1.58;1.48;;;18.80;49.60;;;;;;5015240;28;20223;-66
2023/04/25 00:40:30;;;;;;;1.40;1.30;;;18.80;49.60;;;;;;5015278;28;20617;-65
2023/04/25 00:42:57;;;;;;;1.42;1.33;;;18.80;49.60;;;;;;5031657;28;20578;-65
2023/04/25 00:45:25;;;;;;;1.42;1.33;;;18.80;49.60;;;;;;5015291;28;20271;-65
2023/04/25 00:47:53;;;;;;;1.50;1.40;;;18.70;49.60;;;;;;5015249;28;20217;-66
2023/04/25 00:50:20;;;;;;;2.17;1.52;;;18.70;49.60;;;;;;5031589;28;20212;-66
2023/04/25 00:52:48;;;;;;;1.67;1.30;;;18.70;49.60;;;;;;5016538;28;20199;-66
2023/04/25 00:55:15;;;;;;;1.40;1.30;;;18.70;49.50;;;;;;5032470;28;20750;-66
2023/04/25 00:57:43;;;;;;;1.27;1.20;;;18.70;49.50;;;;;;5032388;28;20311;-66
2023/04/25 01:00:11;;;;;;;1.50;1.40;;;18.70;49.50;;;;;;5014955;28;20201;-66
2023/04/25 01:02:38;;;;;;;1.42;1.33;;;18.70;49.60;;;;;;5016365;28;20275;-66
2023/04/25 01:05:07;;;;;;;1.80;1.27;;;18.70;49.60;;;;;;5014739;28;20274;-66
2023/04/25 01:07:35;;;;;;;1.70;1.60;;;18.70;49.60;;;;;;5014815;28;20220;-66
2023/04/25 01:10:03;;;;;;;1.88;1.58;;;18.70;49.60;;;;;;5014737;28;20629;-66
2023/04/25 01:12:31;;;;;;;1.30;1.25;;;18.70;49.60;;;;;;5015898;28;20235;-66
2023/04/25 01:14:58;;;;;;;1.33;1.23;;;18.70;49.60;;;;;;5014533;28;20205;-66
2023/04/25 01:17:27;;;;;;;1.10;1.10;;;18.70;49.60;;;;;;5014595;28;20641;-66
2023/04/25 01:19:54;;;;;;;1.30;1.20;;;18.60;49.50;;;;;;5013799;28;20635;-65
2023/04/25 01:22:22;;;;;;;1.55;1.45;;;18.60;49.60;;;;;;5014631;28;20613;-66
2023/04/25 01:24:51;;;;;;;2.17;1.48;;;18.60;49.60;;;;;;5014910;28;20216;-66
2023/04/25 01:27:18;;;;;;;1.48;1.38;;;18.60;49.60;;;;;;5014888;28;20216;-65
2023/04/25 01:29:46;;;;;;;1.35;1.20;;;18.60;49.60;;;;;;5014459;28;20280;-66
2023/04/25 01:32:13;;;;;;;1.40;1.30;;;18.60;49.60;;;;;;5014444;28;20291;-65
2023/04/25 01:34:40;;;;;;;1.25;1.15;;;18.60;49.60;;;;;;5015673;28;20189;-65
2023/04/25 01:37:07;;;;;;;1.65;1.55;;;18.60;49.60;;;;;;5014449;28;20229;-65
2023/04/25 01:39:36;;;;;;;1.40;1.30;;;18.60;49.60;;;;;;5015673;28;20200;-65
2023/04/25 01:42:03;;;;;;;1.33;1.30;;;18.60;49.60;;;;;;5014304;28;20685;-66
2023/04/25 01:44:31;;;;;;;1.38;1.33;;;18.60;49.70;;;;;;5014458;28;20217;-66
2023/04/25 01:46:58;;;;;;;1.50;1.40;;;18.60;49.70;;;;;;5014085;28;20208;-66
2023/04/25 01:49:26;;;;;;;1.35;1.25;;;18.60;49.80;;;;;;5013883;28;20211;-66
2023/04/25 01:51:54;;;;;;;1.60;1.50;;;18.60;49.80;;;;;;5014959;28;20203;-66
2023/04/25 01:54:22;;;;;;;1.42;1.33;;;18.60;49.80;;;;;;5014032;28;20272;-66
2023/04/25 01:56:52;;;;;;;1.50;1.40;;;18.60;49.80;;;;;;5014030;28;20688;-65
2023/04/25 01:59:21;;;;;;;1.40;1.30;;;18.60;49.80;;;;;;5015040;28;20188;-65
2023/04/25 02:02:11;;;;;;;1.40;1.30;;;18.60;49.80;;;;;;5010917;28;20201;-66
2023/04/25 02:04:39;;;;;;;1.42;1.30;;;18.50;49.80;;;;;;5015646;28;20224;-66
2023/04/25 02:07:06;;;;;;;1.40;1.30;;;18.60;49.80;;;;;;5014645;28;20308;-66
2023/04/25 02:09:54;;;;;;;1.40;1.30;;;18.50;49.80;;;;;;5015714;28;20674;-66
2023/04/25 02:12:26;;;;;;;1.40;1.30;;;18.60;49.80;;;;;;5015054;28;20321;-65
2023/04/25 02:15:18;;;;;;;1.38;1.27;;;18.50;49.80;;;;;;5013945;28;20185;-66
2023/04/25 02:17:52;;;;;;;1.52;1.42;;;18.50;49.80;;;;;;5013706;28;20228;-66
2023/04/25 02:20:19;;;;;;;1.20;1.20;;;18.50;49.80;;;;;;5013875;28;20287;-65
2023/04/25 02:22:46;;;;;;;1.40;1.30;;;18.50;49.80;;;;;;5013675;28;20283;-65
2023/04/25 02:25:15;;;;;;;1.50;1.40;;;18.50;49.80;;;;;;5013502;28;20295;-65
2023/04/25 02:27:44;;;;;;;1.42;1.33;;;18.50;49.80;;;;;;5013340;28;20217;-66
2023/04/25 02:30:12;;;;;;;1.30;1.20;;;18.50;49.80;;;;;;5013606;28;20209;-66
2023/04/25 02:32:39;;;;;;;1.48;1.38;;;18.50;49.90;;;;;;5013763;28;20193;-66
2023/04/25 02:35:07;;;;;;;1.50;1.40;;;18.50;49.80;;;;;;5013684;28;20631;-65
2023/04/25 02:37:34;;;;;;;1.67;1.55;;;18.50;49.90;;;;;;5013455;28;20232;-65
2023/04/25 02:40:02;;;;;;;1.17;1.10;;;18.50;50.00;;;;;;5013236;28;20247;-65
2023/04/25 02:42:31;;;;;;;1.58;1.40;;;18.50;50.00;;;;;;5013344;28;20200;-66
2023/04/25 02:45:00;;;;;;;1.45;1.35;;;18.40;49.90;;;;;;5014543;28;20189;-66
2023/04/25 02:47:27;;;;;;;1.48;1.38;;;18.40;49.90;;;;;;5012984;28;20223;-65
2023/04/25 02:49:54;;;;;;;1.40;1.30;;;18.40;50.00;;;;;;5014303;28;20761;-65
2023/04/25 02:52:22;;;;;;;1.88;1.35;;;18.40;50.00;;;;;;5013313;28;20207;-65
2023/04/25 02:54:56;;;;;;;1.50;1.40;;;18.40;49.90;;;;;;5030090;28;20658;-65
2023/04/25 02:57:24;;;;;;;1.50;1.40;;;18.40;49.90;;;;;;5012814;28;20319;-68
2023/04/25 02:59:51;;;;;;;1.60;1.30;;;18.40;49.80;;;;;;5012997;28;20200;-66
2023/04/25 03:02:20;;;;;;;1.20;1.20;;;18.40;49.80;;;;;;5014216;28;20185;-66
2023/04/25 03:04:47;;;;;;;1.77;1.42;;;18.40;49.70;;;;;;5012722;28;20232;-66
2023/04/25 03:07:15;;;;;;;1.48;1.38;;;18.40;49.60;;;;;;5012472;28;20224;-65
2023/04/25 03:09:42;;;;;;;1.85;1.60;;;18.40;49.60;;;;;;5012522;28;20192;-66
2023/04/25 03:12:09;;;;;;;1.50;1.40;;;18.40;49.60;;;;;;5028797;28;20204;-66
2023/04/25 03:14:36;;;;;;;1.30;1.23;;;18.40;49.50;;;;;;5012427;28;20641;-66
2023/04/25 03:17:03;;;;;;;1.40;1.30;;;18.40;49.60;;;;;;5012605;28;20221;-66
2023/04/25 03:19:32;;;;;;;1.20;1.20;;;18.40;49.70;;;;;;5029494;28;20192;-66
2023/04/25 03:21:59;;;;;;;1.92;1.30;;;18.40;49.60;;;;;;5012838;28;20197;-66
2023/04/25 03:24:27;;;;;;;1.52;1.42;;;18.40;49.60;;;;;;5012410;28;20211;-66
2023/04/25 03:26:54;;;;;;;1.20;1.20;;;18.40;49.60;;;;;;5012277;28;20219;-66
2023/04/25 03:29:24;;;;;;;1.50;1.40;;;18.40;49.90;;;;;;5013583;28;20667;-66
2023/04/25 03:31:52;;;;;;;2.22;1.25;;;18.50;50.00;;;;;;5012418;28;20208;-66
2023/04/25 03:34:21;;;;;;;1.50;1.20;;;18.50;49.80;;;;;;5012212;28;20193;-66
2023/04/25 03:36:50;;;;;;;1.33;1.23;;;18.40;49.90;;;;;;5012022;28;20217;-66
2023/04/25 03:39:17;;;;;;;1.23;1.13;;;18.50;50.30;;;;;;5028660;28;20208;-66
2023/04/25 03:41:48;;;;;;;1.77;1.38;;;18.50;50.10;;;;;;5011498;28;20189;-66
2023/04/25 03:44:18;;;;;;;1.42;1.33;;;18.50;50.20;;;;;;5012452;28;20300;-66
2023/04/25 03:46:45;;;;;;;1.48;1.38;;;18.50;50.00;;;;;;5012073;28;20303;-66
2023/04/25 03:49:13;;;;;;;1.20;1.20;;;18.50;50.00;;;;;;5012028;28;20205;-66
2023/04/25 03:51:56;;;;;;;1.45;1.35;;;18.50;49.80;;;;;;5011963;28;20185;-66
2023/04/25 03:54:23;;;;;;;1.75;1.27;;;18.50;49.90;;;;;;5012107;28;20204;-66
2023/04/25 03:57:11;;;;;;;1.60;1.50;;;18.50;49.50;;;;;;5012709;28;20232;-66
2023/04/25 03:59:40;;;;;;;1.85;1.30;;;18.50;49.40;;;;;;5012315;28;20686;-66
2023/04/25 04:02:09;;;;;;;1.08;1.08;;;18.50;49.40;;;;;;5011892;28;20220;-66
2023/04/25 04:04:37;;;;;;;1.40;1.30;;;18.60;49.30;;;;;;5012263;28;20197;-66
2023/04/25 04:07:06;;;;;;;1.27;1.23;;;18.50;49.20;;;;;;5012844;28;20246;-66
2023/04/25 04:09:36;;;;;;;1.33;1.27;;;18.50;49.20;;;;;;5012217;28;20209;-66
2023/04/25 04:12:08;;;;;;;1.10;1.10;;;18.60;49.20;;;;;;5012126;28;20197;-67
2023/04/25 04:14:36;;;;;;;1.45;1.35;;;18.50;49.10;;;;;;5011911;28;20231;-66
2023/04/25 04:17:05;;;;;;;1.25;1.23;;;18.50;49.10;;;;;;5011814;28;20259;-67
2023/04/25 04:19:32;;;;;;;1.23;1.13;;;18.50;49.00;;;;;;5013109;28;20185;-66
2023/04/25 04:22:10;;;;;;;1.30;1.20;;;18.50;49.00;;;;;;5012073;28;20199;-68
2023/04/25 04:24:37;;;;;;;1.35;1.23;;;18.50;49.10;;;;;;5011772;28;20197;-67
2023/04/25 04:27:07;;;;;;;1.30;1.20;;;18.50;49.00;;;;;;5011701;28;20209;-67
2023/04/25 04:29:45;;;;;;;1.20;1.20;;;18.50;49.00;;;;;;5011873;28;20212;-67
2023/04/25 04:32:16;;;;;;;1.70;1.40;;;18.50;49.00;;;;;;5011749;28;20681;-68
2023/04/25 04:34:43;;;;;;;1.33;1.23;;;18.50;49.10;;;;;;5013035;28;20213;-69
2023/04/25 04:37:15;;;;;;;2.25;1.30;;;18.50;49.00;;;;;;5012148;28;20228;-69
2023/04/25 04:39:43;;;;;;;1.30;1.20;;;18.50;49.00;;;;;;5012643;28;20600;-70
2023/04/25 04:42:29;;;;;;;1.42;1.33;;;18.50;49.60;;;;;;5013020;28;20562;-70
2023/04/25 04:45:22;;;;;;;1.40;1.30;;;18.50;49.40;;;;;;5010021;28;20282;-69
2023/04/25 04:48:28;;;;;;;1.40;1.30;;;18.60;49.80;;;;;;4952489;28;20211;-68
2023/04/25 04:51:17;;;;;;;1.65;1.17;;;18.60;49.10;;;;;;4952858;28;20199;-69
2023/04/25 04:53:52;;;;;;;1.48;1.30;;;18.60;49.50;;;;;;4987099;28;20203;-69
2023/04/25 04:56:39;;;;;;;1.33;1.23;;;18.70;49.70;;;;;;5016931;28;20180;-69
2023/04/25 04:59:29;;;;;;;1.45;1.25;;;18.70;49.40;;;;;;5011007;28;20667;-68
2023/04/25 05:02:09;;;;;;;3.72;1.33;;;18.70;49.60;;;;;;5015015;28;20197;-68
2023/04/25 05:04:56;;;;;;;1.30;1.20;;;18.70;49.60;;;;;;5015272;28;20227;-68
2023/04/25 05:07:42;;;;;;;1.48;1.38;;;18.80;49.70;;;;;;5016331;28;20236;-70
2023/04/25 05:10:28;;;;;;;1.40;1.30;;;18.80;49.70;;;;;;5015006;28;20201;-69
2023/04/25 05:13:12;;;;;;;1.60;1.50;;;18.80;49.90;;;;;;5016382;28;20275;-69
2023/04/25 05:15:53;;;;;;;1.85;1.50;;;18.70;49.30;;;;;;5015075;28;20196;-69
2023/04/25 05:18:55;;;;;;;1.77;1.30;;;18.70;49.50;;;;;;5006906;28;20616;-69
2023/04/25 05:21:49;;;;;;;1.58;1.48;;;18.80;49.50;;;;;;5000701;28;20666;-70
2023/04/25 05:24:35;;;;;;;1.60;1.50;;;18.70;49.30;;;;;;5016696;28;20183;-70
2023/04/25 05:27:27;;;;;;;1.92;1.20;;;18.70;49.40;;;;;;5008102;28;20655;-70
2023/04/25 05:30:16;;;;;;;1.40;1.30;;;18.80;49.50;;;;;;5015273;28;20208;-70
2023/04/25 05:33:09;;;;;;;3.35;1.65;;;18.70;49.40;;;;;;5013006;28;20193;-70
2023/04/25 05:35:37;;;;;;;1.30;1.20;;;18.70;49.40;;;;;;5015226;28;20630;-70
2023/04/25 05:38:04;;;;;;;1.45;1.30;;;18.70;49.40;;;;;;5014703;28;20694;-70
2023/04/25 05:41:00;;;;;;;2.08;1.35;;;18.70;49.30;;;;;;5016138;28;20193;-71
2023/04/25 05:43:46;;;;;;;1.63;1.45;;;18.70;49.20;;;;;;5015270;28;20294;-69
2023/04/25 05:46:38;;;;;;;1.40;1.30;;;18.80;49.40;;;;;;5014539;28;20205;-69
2023/04/25 05:49:14;;;;;;;1.40;1.30;;;18.70;49.20;;;;;;5015983;28;20231;-69
2023/04/25 05:52:20;;;;;;;1.60;1.50;;;18.80;49.20;;;;;;5002540;28;20674;-69
2023/04/25 05:55:04;;;;;;;2.13;1.33;;;18.80;49.30;;;;;;5014726;28;20192;-68
2023/04/25 05:57:32;;;;;;;1.67;1.48;;;18.80;49.30;;;;;;5014363;28;20216;-69
2023/04/25 06:00:03;;;;;;;1.60;1.50;;;18.80;49.30;;;;;;5015357;28;20220;-68
2023/04/25 06:02:50;;;;;;;2.10;1.50;;;19.00;49.30;;;;;;5015912;28;20235;-68
2023/04/25 06:05:18;;;;;;;1.80;1.70;;;19.00;48.90;;;;;;5013839;28;20204;-68
2023/04/25 06:07:47;;;;;;;2.40;1.40;;;19.10;48.80;;;;;;5013958;28;20295;-68
2023/04/25 06:10:14;;;;;;;1.30;1.25;;;19.10;48.50;;;;;;5014053;28;20197;-69
2023/04/25 06:12:43;;;;;;;1.27;1.17;;;19.10;48.10;;;;;;5013831;28;20197;-68
2023/04/25 06:15:12;;;;;;;1.52;1.42;;;19.20;48.30;;;;;;5013701;28;20212;-68
2023/04/25 06:17:39;;;;;;;1.40;1.30;;;19.40;48.10;;;;;;5013373;28;20231;-68
2023/04/25 06:20:08;;;;;;;1.50;1.40;;;19.40;47.50;;;;;;5014021;28;20196;-69
2023/04/25 06:22:36;;;;;;;1.45;1.35;;;19.40;47.80;;;;;;5013517;28;20201;-68
2023/04/25 06:25:04;;;;;;;1.60;1.50;;;19.50;47.50;;;;;;5014656;28;20196;-69
2023/04/25 06:27:33;;;;;;;1.52;1.42;;;19.60;47.70;;;;;;5013412;28;20220;-66
2023/04/25 06:30:01;;;;;;;2.00;1.50;;;19.60;47.60;;;;;;5013393;28;20204;-66
2023/04/25 06:32:29;;;;;;;1.42;1.33;;;19.60;47.30;;;;;;5029765;28;20211;-66
2023/04/25 06:34:59;;;;;;;1.55;1.45;;;19.70;47.30;;;;;;5013938;28;20196;-66
2023/04/25 06:37:26;;;;;;;1.73;1.48;;;19.70;47.20;;;;;;5013028;28;20232;-66
2023/04/25 06:39:53;;;;;;;1.25;1.23;;;19.70;47.10;;;;;;5013077;28;20200;-65
2023/04/25 06:42:20;;;;;;;2.22;1.50;;;19.70;47.00;;;;;;5029464;28;20271;-66
2023/04/25 06:44:53;;;;;;;1.30;1.20;;;19.70;47.60;;;;;;5013186;28;20254;-66
2023/04/25 06:47:22;;;;;;;1.50;1.40;;;19.70;46.90;;;;;;5013089;28;20221;-65
2023/04/25 06:49:51;;;;;;;1.50;1.38;;;19.70;47.00;;;;;;5013108;28;20667;-66
2023/04/25 06:52:18;;;;;;;1.60;1.50;;;19.70;46.90;;;;;;5014034;28;20271;-66
2023/04/25 06:54:46;;;;;;;1.60;1.50;;;19.70;46.70;;;;;;5012703;28;20581;-66
2023/04/25 06:57:24;;;;;;;1.55;1.40;;;19.70;46.80;;;;;;5012814;28;20212;-66
2023/04/25 06:59:52;;;;;;;1.30;1.20;;;19.70;46.70;;;;;;5013297;28;20279;-66
2023/04/25 07:02:18;;;;;;;1.42;1.30;;;19.70;46.70;;;;;;5012886;28;20585;-66
2023/04/25 07:04:46;;;;;;;1.30;1.20;;;19.80;46.80;;;;;;5029407;28;20203;-66
2023/04/25 07:07:14;;;;;;;1.35;1.25;;;19.80;46.90;;;;;;5049405;22;20693;-83
2023/04/25 07:09:47;;;;;;;1.50;1.40;;;19.80;46.70;;;;;;5035586;28;20249;-82
2023/04/25 07:12:15;;;;;;;1.67;1.27;;;19.80;46.70;;;;;;5041511;28;20192;-81
2023/04/25 07:14:44;;;;;;;1.48;1.38;;;19.80;46.90;;;;;;5043879;28;20237;-81
2023/04/25 07:17:11;;;;;;;1.67;1.35;;;19.80;46.70;;;;;;5046258;28;20196;-81
2023/04/25 07:19:39;;;;;;;1.38;1.27;;;19.80;46.60;;;;;;5045862;28;20223;-81
2023/04/25 07:22:07;;;;;;;1.58;1.48;;;19.80;47.10;;;;;;5043663;28;20564;-81
2023/04/25 07:24:38;;;;;;;1.20;1.20;;;19.70;46.70;;;;;;5041253;28;20195;-82
2023/04/25 07:27:06;;;;;;;1.42;1.35;;;19.60;47.00;;;;;;5039046;28;20246;-82
2023/04/25 07:29:47;;;;;;;1.48;1.38;;;19.60;46.90;;;;;;5039371;28;20184;-82
2023/04/25 07:32:15;;;;;;;1.50;1.40;;;19.60;47.10;;;;;;5039074;28;20226;-82
2023/04/25 07:34:43;;;;;;;1.55;1.45;;;19.60;47.00;;;;;;5038980;28;20196;-82
2023/04/25 07:37:10;;;;;;;1.27;1.20;;;19.50;47.10;;;;;;5039489;28;20338;-82
2023/04/25 07:39:49;;;;;;;1.40;1.30;;;19.50;47.30;;;;;;5038939;28;20191;-82
2023/04/25 07:42:17;;;;;;;2.28;1.55;;;19.50;47.60;;;;;;5038739;28;20199;-82
2023/04/25 07:44:44;;;;;;;1.27;1.20;;;19.40;47.50;;;;;;5039227;28;20633;-82
2023/04/25 07:47:14;;;;;;;1.50;1.40;;;19.40;47.40;;;;;;5039298;28;20228;-82
2023/04/25 07:49:41;;;;;;;1.70;1.60;;;19.40;47.50;;;;;;5022922;28;20198;-82
2023/04/25 07:52:09;;;;;;;1.60;1.40;;;19.40;47.50;;;;;;5037396;28;20276;-82
2023/04/25 07:54:38;;;;;;;1.30;1.30;;;19.40;47.50;;;;;;5037921;28;20546;-82
2023/04/25 07:57:16;;;;;;;1.60;1.50;;;19.40;47.50;;;;;;5037799;28;20246;-82
2023/04/25 07:59:45;;;;;;;1.50;1.40;;;19.40;47.60;;;;;;5034197;28;20623;-82
2023/04/25 08:02:12;;;;;;;1.60;1.50;;;19.40;47.60;;;;;;5035004;28;20192;-82
2023/04/25 08:04:40;;;;;;;2.30;1.40;;;19.40;48.20;;;;;;5034450;28;20199;-82
2023/04/25 08:07:09;;;;;;;1.52;1.42;;;19.40;47.90;;;;;;5033132;28;20231;-82
2023/04/25 08:09:48;;;;;;;1.70;1.60;;;19.40;47.50;;;;;;5019016;28;20299;-82
2023/04/25 08:12:25;;;;;;;1.52;1.42;;;19.40;47.60;;;;;;5033840;28;20190;-82
2023/04/25 08:14:53;;;;;;;1.70;1.60;;;19.40;47.60;;;;;;5033365;28;20283;-82
2023/04/25 08:17:20;;;;;;;1.65;1.55;;;19.40;47.50;;;;;;5033288;28;20203;-82
2023/04/25 08:19:48;;;;;;;1.50;1.40;;;19.40;47.50;;;;;;5034020;28;20212;-82
2023/04/25 08:22:23;;;;;;;1.90;1.80;;;19.40;47.50;;;;;;5034230;28;20191;-82
2023/04/25 08:24:56;;;;;;;2.67;1.63;;;19.50;47.40;;;;;;5033829;28;20681;-84
2023/04/25 08:27:25;;;;;;;1.60;1.50;;;19.60;47.40;;;;;;5033436;28;20207;-85
2023/04/25 08:29:52;;;;;;;1.60;1.50;;;19.60;47.10;;;;;;5037022;28;20284;-85
2023/04/25 08:32:21;;;;;;;1.50;1.40;;;19.70;47.10;;;;;;5037633;28;20582;-85
2023/04/25 08:35:05;;;;;;;1.40;1.30;;;19.80;47.10;;;;;;5037166;28;20548;-85
2023/04/25 08:37:33;;;;;;;1.70;1.60;;;19.80;47.00;;;;;;5036513;28;20211;-85
2023/04/25 08:40:07;;;;;;;1.60;1.50;;;19.80;47.10;;;;;;5036848;28;20224;-85
2023/04/25 08:42:49;;;;;;;1.60;1.50;;;19.90;46.90;;;;;;5037485;28;20196;-85
2023/04/25 08:45:17;;;;;;;1.60;1.50;;;19.90;46.90;;;;;;5036194;28;20298;-85
2023/04/25 08:47:44;;;;;;;1.48;1.33;;;19.90;46.90;;;;;;5036631;28;20196;-85
2023/04/25 08:50:11;;;;;;;1.70;1.60;;;19.90;47.00;;;;;;5036386;28;20246;-85
2023/04/25 08:52:44;;;;;;;1.80;1.65;;;19.90;46.90;;;;;;5042783;28;20255;-85
2023/04/25 08:55:12;;;;;;;2.45;1.70;;;19.90;46.80;;;;;;5038465;28;20227;-85
2023/04/25 08:57:42;;;;;;;1.60;1.50;;;19.90;46.80;;;;;;5036764;28;20291;-85
2023/04/25 09:00:12;;;;;;;1.90;1.80;;;19.90;46.80;;;;;;5037361;28;20741;-85
2023/04/25 09:02:42;;;;;;;2.55;1.60;;;19.90;46.90;;;;;;5038232;28;20196;-85
2023/04/25 09:05:10;;;;;;;1.55;1.45;;;19.90;47.00;;;;;;5038293;28;20547;-85
2023/04/25 09:07:38;;;;;;;1.55;1.45;;;19.90;46.90;;;;;;5037753;28;20234;-83
2023/04/25 09:10:07;;;;;;;1.65;1.55;;;19.90;46.90;;;;;;5037979;28;20219;-83
2023/04/25 09:12:37;;;;;;;1.60;1.50;;;19.90;46.90;;;;;;5022639;28;20675;-82
2023/04/25 09:15:09;;;;;;;1.70;1.60;;;19.90;46.80;;;;;;5040372;28;20204;-84
2023/04/25 09:17:57;;;;;;;1.60;1.50;;;19.90;46.80;;;;;;5041248;28;20184;-83
2023/04/25 09:20:27;;;;;;;1.60;1.50;;;19.90;46.90;;;;;;5041160;28;20203;-83
2023/04/25 09:23:06;;;;;;;1.67;1.58;;;19.90;46.80;;;;;;5040149;28;20677;-84
2023/04/25 09:25:38;;;;;;;2.00;1.80;;;19.90;47.00;;;;;;5040369;28;20188;-84
2023/04/25 09:28:07;;;;;;;1.90;1.80;;;19.90;46.90;;;;;;5040325;28;20187;-83
2023/04/25 09:30:35;;;;;;;2.00;1.63;;;19.80;46.90;;;;;;5042155;28;20561;-85
2023/04/25 09:33:19;;;;;;;1.60;1.50;;;19.80;47.30;;;;;;5037673;28;20280;-83
2023/04/25 09:35:54;;;;;;;2.97;1.77;;;19.70;47.40;;;;;;5036191;28;20189;-83
2023/04/25 09:38:30;;;;;;;1.65;1.55;;;19.60;47.40;;;;;;5036383;28;20242;-83
2023/04/25 09:41:01;;;;;;;1.80;1.70;;;19.60;47.50;;;;;;5036369;28;20216;-85
2023/04/25 09:43:45;;;;;;;1.70;1.60;;;19.70;47.60;;;;;;5040574;28;20251;-86
2023/04/25 09:46:13;;;;;;;1.70;1.60;;;19.60;47.50;;;;;;5039810;28;20199;-84
2023/04/25 09:48:50;;;;;;;1.98;1.80;;;19.60;47.60;;;;;;5040619;28;20192;-84
2023/04/25 09:51:26;;;;;;;1.60;1.50;;;19.60;47.50;;;;;;5036131;28;20266;-84
2023/04/25 09:53:54;;;;;;;1.70;1.60;;;19.60;47.50;;;;;;5036988;28;20200;-84
2023/04/25 09:56:41;;;;;;;1.70;1.60;;;19.60;47.50;;;;;;5036895;28;20234;-84
2023/04/25 09:59:08;;;;;;;1.70;1.60;;;19.60;47.50;;;;;;5036001;28;20273;-83
2023/04/25 10:01:37;;;;;;;2.08;1.77;;;19.60;47.50;;;;;;5036100;28;20788;-84
2023/04/25 10:04:12;;;;;;;1.95;1.65;;;19.70;47.30;;;;;;5039484;28;20219;-84
2023/04/25 10:06:54;;;;;;;1.63;1.52;;;19.70;47.20;;;;;;5035250;28;20290;-84
2023/04/25 10:09:22;;;;;;;2.47;1.70;;;19.60;47.40;;;;;;5036080;28;20535;-83
2023/04/25 10:11:50;;;;;;;1.58;1.48;;;19.60;47.30;;;;;;5035556;28;20219;-84
2023/04/25 10:14:17;;;;;;;1.55;1.45;;;19.60;47.40;;;;;;5035628;28;20204;-84
2023/04/25 10:16:45;;;;;;;1.67;1.55;;;19.60;47.40;;;;;;5035250;28;20199;-84
2023/04/25 10:19:14;;;;;;;1.77;1.40;;;19.60;47.40;;;;;;5035442;28;20227;-84
2023/04/25 10:21:45;;;;;;;1.55;1.45;;;19.60;47.40;;;;;;5035185;28;20220;-84
2023/04/25 10:24:12;;;;;;;1.30;1.30;;;19.60;47.30;;;;;;5036454;28;20204;-84
2023/04/25 10:27:08;;;;;;;1.83;1.55;;;19.50;47.20;;;;;;5039456;28;20200;-85
2023/04/25 10:29:36;;;;;;;1.50;1.40;;;19.60;47.20;;;;;;4945794;28;20230;-85
2023/04/25 10:32:03;;;;;;;1.65;1.55;;;19.50;47.20;;;;;;5026230;28;20277;-84
2023/04/25 10:34:48;;;;;;;1.60;1.50;;;19.50;47.10;;;;;;5037929;28;20196;-85
2023/04/25 10:37:17;;;;;;;2.42;1.40;;;19.60;47.20;;;;;;5039493;28;20196;-84
2023/04/25 10:39:44;;;;;;;1.92;1.23;;;19.50;47.00;;;;;;5037887;28;20580;-85
2023/04/25 10:42:11;;;;;;;1.45;1.35;;;19.60;47.20;;;;;;5035599;28;20705;-85
2023/04/25 10:44:39;;;;;;;1.40;1.30;;;19.60;47.20;;;;;;5038288;28;20200;-84
2023/04/25 10:47:09;;;;;;;1.67;1.30;;;19.50;47.20;;;;;;5038009;28;20215;-84
2023/04/25 10:49:37;;;;;;;1.25;1.20;;;19.60;47.20;;;;;;5039481;28;20203;-85
2023/04/25 10:52:28;;;;;;;1.42;1.33;;;19.60;47.20;;;;;;5036838;28;20311;-84
2023/04/25 10:54:57;;;;;;;1.30;1.20;;;19.60;47.20;;;;;;5037386;28;20200;-85
2023/04/25 10:57:32;;;;;;;1.40;1.30;;;19.60;47.20;;;;;;5036160;28;20267;-85
2023/04/25 11:00:04;;;;;;;1.20;1.20;;;19.60;47.20;;;;;;5035612;28;20277;-85
2023/04/25 11:02:32;;;;;;;1.40;1.30;;;19.60;47.20;;;;;;5035425;28;20200;-85
2023/04/25 11:05:04;;;;;;;1.27;1.20;;;19.60;47.10;;;;;;5038705;28;20200;-85
2023/04/25 11:07:47;;;;;;;1.45;1.35;;;19.70;47.10;;;;;;5034484;28;20612;-85
2023/04/25 11:10:14;;;;;;;1.50;1.40;;;19.80;47.00;;;;;;5034763;28;20215;-85
2023/04/25 11:12:41;;;;;;;1.75;1.48;;;19.80;46.80;;;;;;5035225;28;20231;-85
2023/04/25 11:15:09;;;;;;;1.50;1.40;;;19.90;46.70;;;;;;5033895;28;20206;-85
2023/04/25 11:17:36;;;;;;;1.58;1.48;;;19.90;46.60;;;;;;5038888;28;20208;-85
2023/04/25 11:20:08;;;;;;;1.50;1.40;;;19.90;46.50;;;;;;5041974;28;20228;-85
2023/04/25 11:22:37;;;;;;;1.30;1.20;;;19.90;46.60;;;;;;5042804;28;20212;-85
2023/04/25 11:25:10;;;;;;;1.50;1.40;;;20.00;46.50;;;;;;5038967;28;20674;-85
2023/04/25 11:27:50;;;;;;;1.35;1.30;;;20.00;46.50;;;;;;5035522;28;20188;-85
2023/04/25 11:30:17;;;;;;;1.30;1.20;;;19.90;46.20;;;;;;5037434;28;20212;-85
2023/04/25 11:32:45;;;;;;;1.73;1.20;;;20.00;46.20;;;;;;5033929;28;20196;-85
2023/04/25 11:35:12;;;;;;;1.33;1.23;;;20.10;46.00;;;;;;5034234;28;20196;-85
2023/04/25 11:37:40;;;;;;;1.30;1.20;;;20.10;46.10;;;;;;5035858;28;20206;-85
2023/04/25 11:40:11;;;;;;;1.60;1.20;;;20.10;46.10;;;;;;5034571;28;20228;-84
2023/04/25 11:42:42;;;;;;;1.20;1.20;;;20.10;46.10;;;;;;5034426;28;20185;-84
2023/04/25 11:45:10;;;;;;;1.75;1.27;;;20.10;45.90;;;;;;5033438;28;20290;-84
2023/04/25 11:47:37;;;;;;;1.00;1.00;;;20.10;46.00;;;;;;5035209;28;20553;-84
2023/04/25 11:50:05;;;;;;;1.25;1.15;;;20.20;45.90;;;;;;5034193;28;20220;-84
2023/04/25 11:52:40;;;;;;;1.35;1.25;;;20.20;45.90;;;;;;5034246;28;20295;-84
2023/04/25 11:55:10;;;;;;;1.20;1.20;;;20.20;45.90;;;;;;5034418;28;20249;-84
2023/04/25 11:57:38;;;;;;;1.40;1.30;;;20.20;45.90;;;;;;5035951;28;20231;-84
2023/04/25 12:00:12;;;;;;;1.10;1.10;;;20.20;45.90;;;;;;5034505;28;20682;-84
2023/04/25 12:02:41;;;;;;;1.17;1.13;;;20.20;45.90;;;;;;5037741;28;20654;-84
2023/04/25 12:05:09;;;;;;;1.40;1.30;;;20.20;45.90;;;;;;5038577;28;20200;-85
2023/04/25 12:07:36;;;;;;;1.67;1.33;;;20.30;45.90;;;;;;5038374;28;20281;-85
2023/04/25 12:10:07;;;;;;;1.40;1.13;;;20.30;45.90;;;;;;5038688;28;20717;-85
2023/04/25 12:12:35;;;;;;;1.50;1.40;;;20.30;46.00;;;;;;5038765;28;20199;-85
2023/04/25 12:15:15;;;;;;;1.73;1.50;;;20.30;46.00;;;;;;5038099;28;20650;-85
2023/04/25 12:17:42;;;;;;;1.65;1.30;;;20.30;46.30;;;;;;5038828;28;20196;-85
2023/04/25 12:20:11;;;;;;;1.40;1.30;;;20.30;45.90;;;;;;5041480;28;20224;-85
2023/04/25 12:22:38;;;;;;;1.27;1.25;;;20.30;45.90;;;;;;5038245;28;20207;-85
2023/04/25 12:25:07;;;;;;;1.60;1.50;;;20.30;46.00;;;;;;5036980;28;20563;-85
2023/04/25 12:27:36;;;;;;;1.30;1.20;;;20.30;46.00;;;;;;5036826;28;20583;-85
2023/04/25 12:30:04;;;;;;;1.58;1.48;;;20.40;46.10;;;;;;5037185;28;20272;-85
2023/04/25 12:32:32;;;;;;;1.55;1.45;;;20.30;46.00;;;;;;5037351;28;20204;-85
2023/04/25 12:34:59;;;;;;;1.55;1.45;;;20.30;46.50;;;;;;5037142;28;20200;-85
2023/04/25 12:37:26;;;;;;;1.70;1.60;;;20.40;46.00;;;;;;5036004;28;20223;-85
2023/04/25 12:39:54;;;;;;;1.63;1.52;;;20.30;45.90;;;;;;5037066;28;20721;-85
2023/04/25 12:42:21;;;;;;;1.60;1.50;;;20.30;45.90;;;;;;5036663;28;20238;-85
2023/04/25 12:44:50;;;;;;;1.75;1.65;;;20.30;45.90;;;;;;5037885;28;20200;-85
2023/04/25 12:47:17;;;;;;;2.20;1.58;;;20.30;45.90;;;;;;5037071;28;20208;-85
2023/04/25 12:49:44;;;;;;;1.65;1.52;;;20.30;46.60;;;;;;5020802;28;20196;-85
2023/04/25 12:52:11;;;;;;;2.15;1.55;;;20.30;46.00;;;;;;5037253;28;20206;-85
2023/04/25 12:54:38;;;;;;;1.75;1.65;;;20.30;45.90;;;;;;5037413;28;20204;-85
2023/04/25 12:57:06;;;;;;;1.88;1.67;;;20.30;45.90;;;;;;5036465;28;20201;-85
2023/04/25 12:59:33;;;;;;;1.45;1.35;;;20.40;45.90;;;;;;5020128;28;20310;-85
2023/04/25 13:02:02;;;;;;;1.50;1.40;;;20.40;45.80;;;;;;5036319;28;20216;-85
2023/04/25 13:04:42;;;;;;;2.03;1.45;;;20.40;45.80;;;;;;5042719;28;20226;-85
2023/04/25 13:07:09;;;;;;;1.50;1.40;;;20.40;45.70;;;;;;5044092;28;20211;-83
2023/04/25 13:09:36;;;;;;;1.52;1.42;;;20.40;45.70;;;;;;5041788;28;20204;-84